createdAt,value
2023-04-11T00:02:04.580Z,30.40
2023-04-11T00:04:31.013Z,30.44
2023-04-11T00:06:57.386Z,30.45
2023-04-11T00:09:23.723Z,30.39
2023-04-11T00:11:50.071Z,30.49
2023-04-11T00:14:17.540Z,30.35
2023-04-11T00:16:43.971Z,30.61
2023-04-11T00:19:10.373Z,30.49
2023-04-11T00:21:39.854Z,30.75
2023-04-11T00:24:08.983Z,30.60
2023-04-11T00:26:35.406Z,30.72
2023-04-11T00:29:01.749Z,30.73
2023-04-11T00:31:28.185Z,30.69
2023-04-11T00:33:54.507Z,30.55
2023-04-11T00:36:20.945Z,30.66
2023-04-11T00:38:47.399Z,30.63
2023-04-11T00:41:13.741Z,30.58
2023-04-11T00:43:40.064Z,30.63
2023-04-11T00:46:06.439Z,30.63
2023-04-11T00:48:32.828Z,30.55
2023-04-11T00:50:59.872Z,30.51
2023-04-11T00:53:26.204Z,30.49
2023-04-11T00:55:52.539Z,30.49
2023-04-11T00:58:18.854Z,30.48
2023-04-11T01:00:49.453Z,30.51
2023-04-11T01:03:15.903Z,30.55
2023-04-11T01:05:42.293Z,30.81
2023-04-11T01:08:08.603Z,30.58
2023-04-11T01:10:34.923Z,30.74
2023-04-11T01:13:01.276Z,30.66
2023-04-11T01:15:27.696Z,30.53
2023-04-11T01:17:55.368Z,30.70
2023-04-11T01:20:22.114Z,30.58
2023-04-11T01:22:49.427Z,30.67
2023-04-11T01:25:15.979Z,30.79
2023-04-11T01:27:42.737Z,30.55
2023-04-11T01:30:09.334Z,30.75
2023-04-11T01:32:35.689Z,30.89
2023-04-11T01:35:02.044Z,30.68
2023-04-11T01:37:28.355Z,30.67
2023-04-11T01:39:54.676Z,30.63
2023-04-11T01:42:21.110Z,30.55
2023-04-11T01:44:47.844Z,30.73
2023-04-11T01:47:14.222Z,30.64
2023-04-11T01:49:40.689Z,30.69
2023-04-11T01:52:07.040Z,30.84
2023-04-11T01:54:33.351Z,30.64
2023-04-11T01:56:59.680Z,30.54
2023-04-11T01:59:25.996Z,30.73
2023-04-11T02:01:52.397Z,30.66
2023-04-11T02:04:18.997Z,30.56
2023-04-11T02:06:45.567Z,30.30
2023-04-11T02:09:11.927Z,30.50
2023-04-11T02:11:38.255Z,30.19
2023-04-11T02:14:06.214Z,30.23
2023-04-11T02:16:33.642Z,30.30
2023-04-11T02:19:00.242Z,30.10
2023-04-11T02:21:26.756Z,29.95
2023-04-11T02:23:53.085Z,30.11
2023-04-11T02:26:19.487Z,30.20
2023-04-11T02:28:45.842Z,30.24
2023-04-11T02:31:12.223Z,30.20
2023-04-11T02:33:38.601Z,30.10
2023-04-11T02:36:05.051Z,30.33
2023-04-11T02:38:31.455Z,30.29
2023-04-11T02:40:59.410Z,29.84
2023-04-11T02:43:25.726Z,29.74
2023-04-11T02:45:56.436Z,29.79
2023-04-11T02:48:28.846Z,29.65
2023-04-11T02:50:55.646Z,29.84
2023-04-11T02:53:21.986Z,29.84
2023-04-11T02:55:48.368Z,29.90
2023-04-11T02:58:17.761Z,30.05
2023-04-11T03:00:44.289Z,30.18
2023-04-11T03:03:11.986Z,30.17
2023-04-11T03:05:38.469Z,30.26
2023-04-11T03:08:04.789Z,30.36
2023-04-11T03:10:31.135Z,30.26
2023-04-11T03:12:57.452Z,30.31
2023-04-11T03:15:23.797Z,30.19
2023-04-11T03:17:50.263Z,30.05
2023-04-11T03:20:19.594Z,30.02
2023-04-11T03:22:46.550Z,30.13
2023-04-11T03:25:12.895Z,30.25
2023-04-11T03:27:39.259Z,30.34
2023-04-11T03:30:05.809Z,30.26
2023-04-11T03:32:32.188Z,30.55
2023-04-11T03:35:00.153Z,30.66
2023-04-11T03:37:26.479Z,30.65
2023-04-11T03:39:52.946Z,30.61
2023-04-11T03:42:19.300Z,30.58
2023-04-11T03:44:45.636Z,30.46
2023-04-11T03:47:11.986Z,30.24
2023-04-11T03:49:38.439Z,30.14
2023-04-11T03:52:05.506Z,30.03
2023-04-11T03:54:32.313Z,30.15
2023-04-11T03:56:58.644Z,30.25
2023-04-11T03:59:25.016Z,30.24
2023-04-11T04:01:51.393Z,30.08
2023-04-11T04:04:17.875Z,30.33
2023-04-11T04:06:45.836Z,30.28
2023-04-11T04:09:12.160Z,30.38
2023-04-11T04:11:38.493Z,30.46
2023-04-11T04:14:04.830Z,30.28
2023-04-11T04:16:31.184Z,30.40
2023-04-11T04:18:57.785Z,30.44
2023-04-11T04:21:26.906Z,30.34
2023-04-11T04:23:54.218Z,30.32
2023-04-11T04:26:24.797Z,30.16
2023-04-11T04:28:51.160Z,30.09
2023-04-11T04:31:22.294Z,30.15
2023-04-11T04:33:49.502Z,30.06
2023-04-11T04:36:17.735Z,30.15
2023-04-11T04:38:44.253Z,30.13
2023-04-11T04:41:16.208Z,30.26
2023-04-11T04:43:42.595Z,30.40
2023-04-11T04:46:09.184Z,30.40
2023-04-11T04:48:35.540Z,30.43
2023-04-11T04:51:02.998Z,30.15
2023-04-11T04:53:29.327Z,29.64
2023-04-11T04:55:55.932Z,29.77
2023-04-11T04:58:22.251Z,29.81
2023-04-11T05:00:49.506Z,29.79
2023-04-11T05:03:17.277Z,29.83
2023-04-11T05:05:43.757Z,29.87
2023-04-11T05:08:10.088Z,29.71
2023-04-11T05:10:36.404Z,29.86
2023-04-11T05:13:02.784Z,29.89
2023-04-11T05:15:29.117Z,30.04
2023-04-11T05:17:55.579Z,30.06
2023-04-11T05:20:21.951Z,29.98
2023-04-11T05:22:49.697Z,29.94
2023-04-11T05:25:16.111Z,30.22
2023-04-11T05:27:42.470Z,30.06
2023-04-11T05:30:08.946Z,30.11
2023-04-11T05:32:35.363Z,30.03
2023-04-11T05:35:01.704Z,29.89
2023-04-11T05:37:31.149Z,29.81
2023-04-11T05:39:57.586Z,29.98
2023-04-11T05:42:23.924Z,29.93
2023-04-11T05:44:50.802Z,30.12
2023-04-11T05:47:17.143Z,29.93
2023-04-11T05:49:43.478Z,29.87
2023-04-11T05:52:09.818Z,30.30
2023-04-11T05:54:36.399Z,29.98
2023-04-11T05:57:03.175Z,30.02
2023-04-11T05:59:30.604Z,29.97
2023-04-11T06:01:57.082Z,29.82
2023-04-11T06:04:23.633Z,29.68
2023-04-11T06:06:51.603Z,29.77
2023-04-11T06:09:18.049Z,29.69
2023-04-11T06:11:44.648Z,29.76
2023-04-11T06:14:11.026Z,29.61
2023-04-11T06:16:38.728Z,29.82
2023-04-11T06:19:05.101Z,29.75
2023-04-11T06:21:34.261Z,29.66
2023-04-11T06:24:09.954Z,29.63
2023-04-11T06:26:36.312Z,29.82
2023-04-11T06:29:05.670Z,29.90
2023-04-11T06:31:32.362Z,29.97
2023-04-11T06:33:59.098Z,29.99
2023-04-11T06:36:25.985Z,30.07
2023-04-11T06:38:52.306Z,29.90
2023-04-11T06:41:18.663Z,30.04
2023-04-11T06:43:44.975Z,29.83
2023-04-11T06:46:11.953Z,29.96
2023-04-11T06:48:38.340Z,29.77
2023-04-11T06:51:04.672Z,29.85
2023-04-11T06:53:31.069Z,29.73
2023-04-11T06:55:57.897Z,29.69
2023-04-11T06:58:24.233Z,29.87
2023-04-11T07:00:51.442Z,29.94
2023-04-11T07:03:18.238Z,29.86
2023-04-11T07:05:44.672Z,29.84
2023-04-11T07:08:11.073Z,29.88
2023-04-11T07:10:37.401Z,29.84
2023-04-11T07:13:03.756Z,29.91
2023-04-11T07:15:30.069Z,29.88
2023-04-11T07:17:56.429Z,29.75
2023-04-11T07:20:22.769Z,30.02
2023-04-11T07:22:49.138Z,29.98
2023-04-11T07:25:15.487Z,29.98
2023-04-11T07:27:43.550Z,29.98
2023-04-11T07:30:10.037Z,29.96
2023-04-11T07:32:36.620Z,30.15
2023-04-11T07:35:03.007Z,30.04
2023-04-11T07:37:30.226Z,30.01
2023-04-11T07:39:56.548Z,30.07
2023-04-11T07:42:22.897Z,29.96
2023-04-11T07:44:49.241Z,30.38
2023-04-11T07:47:15.826Z,30.29
2023-04-11T07:49:42.163Z,30.36
2023-04-11T07:52:08.500Z,30.35
2023-04-11T07:54:34.861Z,30.37
2023-04-11T07:57:02.059Z,30.53
2023-04-11T07:59:28.442Z,30.64
2023-04-11T08:01:59.120Z,30.54
2023-04-11T08:04:25.803Z,30.59
2023-04-11T08:06:52.416Z,30.41
2023-04-11T08:09:18.766Z,30.51
2023-04-11T08:11:45.205Z,30.78
2023-04-11T08:14:11.522Z,30.72
2023-04-11T08:16:37.944Z,30.74
2023-04-11T08:19:04.432Z,30.54
2023-04-11T08:21:31.243Z,30.53
2023-04-11T08:23:58.040Z,30.71
2023-04-11T08:26:24.656Z,30.56
2023-04-11T08:28:51.133Z,30.57
2023-04-11T08:31:17.822Z,30.42
2023-04-11T08:33:44.248Z,30.30
2023-04-11T08:36:11.047Z,30.51
2023-04-11T08:38:37.935Z,30.39
2023-04-11T08:41:04.309Z,30.25
2023-04-11T08:43:33.387Z,30.28
2023-04-11T08:46:01.142Z,30.29
2023-04-11T08:48:28.338Z,30.17
2023-04-11T08:50:54.668Z,30.49
2023-04-11T08:53:22.171Z,30.52
2023-04-11T08:55:48.518Z,30.36
2023-04-11T08:58:14.833Z,30.34
2023-04-11T09:00:41.140Z,30.34
2023-04-11T09:03:08.115Z,30.34
2023-04-11T09:05:35.528Z,30.35
2023-04-11T09:08:03.285Z,30.18
2023-04-11T09:10:29.913Z,30.20
2023-04-11T09:12:56.396Z,30.10
2023-04-11T09:15:27.933Z,30.03
2023-04-11T09:17:54.509Z,30.30
2023-04-11T09:20:21.432Z,30.13
2023-04-11T09:22:50.660Z,30.12
2023-04-11T09:25:17.684Z,30.07
2023-04-11T09:27:44.003Z,30.31
2023-04-11T09:30:22.693Z,29.99
2023-04-11T09:32:49.241Z,29.78
2023-04-11T09:35:16.236Z,29.69
2023-04-11T09:37:55.682Z,30.01
2023-04-11T09:40:24.527Z,29.80
2023-04-11T09:42:58.231Z,29.96
2023-04-11T09:45:24.956Z,29.75
2023-04-11T09:47:51.954Z,29.59
2023-04-11T09:50:18.510Z,29.53
2023-04-11T09:52:45.045Z,29.63
2023-04-11T09:55:15.068Z,29.58
2023-04-11T09:57:45.544Z,29.60
2023-04-11T10:00:16.960Z,29.57
2023-04-11T10:02:44.525Z,29.55
2023-04-11T10:05:11.204Z,29.62
2023-04-11T10:07:44.020Z,29.53
2023-04-11T10:10:10.687Z,29.57
2023-04-11T10:12:37.368Z,29.47
2023-04-11T10:15:08.270Z,29.45
2023-04-11T10:17:34.650Z,29.38
2023-04-11T10:20:01.319Z,29.35
2023-04-11T10:22:46.375Z,29.71
2023-04-11T10:25:23.593Z,29.49
2023-04-11T10:28:03.860Z,29.41
2023-04-11T10:30:39.585Z,29.60
2023-04-11T10:33:09.455Z,29.37
2023-04-11T10:35:35.877Z,29.47
2023-04-11T10:38:02.205Z,29.54
2023-04-11T10:40:28.610Z,29.40
2023-04-11T10:42:55.249Z,29.43
2023-04-11T10:45:24.706Z,29.47
2023-04-11T10:47:57.238Z,29.48
2023-04-11T10:50:23.619Z,29.43
2023-04-11T10:52:49.967Z,29.68
2023-04-11T10:55:19.691Z,29.48
2023-04-11T10:58:05.806Z,29.48
2023-04-11T11:00:53.996Z,29.56
2023-04-11T11:03:21.218Z,29.53
2023-04-11T11:05:47.927Z,29.33
2023-04-11T11:08:14.236Z,29.31
2023-04-11T11:10:41.712Z,29.32
2023-04-11T11:13:08.091Z,29.41
2023-04-11T11:15:37.529Z,29.15
2023-04-11T11:18:04.867Z,29.42
2023-04-11T11:20:31.318Z,29.29
2023-04-11T11:22:58.219Z,29.29
2023-04-11T11:25:25.496Z,29.31
2023-04-11T11:27:58.881Z,29.46
2023-04-11T11:30:25.195Z,29.52
2023-04-11T11:32:51.660Z,29.52
2023-04-11T11:35:18.381Z,29.40
2023-04-11T11:37:44.748Z,29.25
2023-04-11T11:40:14.050Z,29.29
2023-04-11T11:42:40.512Z,29.34
2023-04-11T11:45:20.363Z,29.73
2023-04-11T11:47:47.055Z,29.67
2023-04-11T11:50:29.440Z,29.47
2023-04-11T11:52:56.581Z,29.58
2023-04-11T11:57:49.560Z,29.61
2023-04-11T12:00:16.082Z,29.59
2023-04-11T12:02:43.084Z,29.80
2023-04-11T12:05:10.608Z,29.52
2023-04-11T12:07:37.241Z,29.47
2023-04-11T12:10:06.345Z,29.66
2023-04-11T12:12:36.624Z,29.65
2023-04-11T12:15:12.649Z,29.63
2023-04-11T12:17:39.041Z,29.61
2023-04-11T12:20:07.823Z,29.49
2023-04-11T12:22:34.403Z,29.35
2023-04-11T12:25:18.895Z,29.37
2023-04-11T12:27:47.125Z,29.31
2023-04-11T12:30:16.309Z,29.31
2023-04-11T12:32:42.807Z,29.17
2023-04-11T12:35:09.224Z,28.70
2023-04-11T12:37:35.841Z,28.65
2023-04-11T12:40:06.782Z,28.59
2023-04-11T12:42:36.512Z,28.84
2023-04-11T12:45:06.480Z,28.89
2023-04-11T12:47:33.018Z,28.64
2023-04-11T12:49:59.339Z,28.44
2023-04-11T12:52:25.663Z,28.49
2023-04-11T12:54:52.016Z,28.50
2023-04-11T12:57:18.324Z,28.68
2023-04-11T12:59:44.660Z,28.67
2023-04-11T13:02:11.219Z,28.62
2023-04-11T13:04:37.815Z,28.55
2023-04-11T13:07:04.644Z,28.78
2023-04-11T13:09:33.851Z,28.93
2023-04-11T13:12:01.751Z,28.91
2023-04-11T13:14:28.148Z,28.73
2023-04-11T13:16:54.591Z,29.07
2023-04-11T13:19:21.144Z,29.06
2023-04-11T13:21:47.502Z,29.14
2023-04-11T13:24:13.808Z,29.08
2023-04-11T13:26:40.143Z,29.10
2023-04-11T13:29:06.772Z,29.30
2023-04-11T13:31:33.277Z,29.39
2023-04-11T13:33:59.653Z,29.38
2023-04-11T13:36:28.966Z,29.34
2023-04-11T13:38:55.850Z,29.51
2023-04-11T13:41:23.078Z,29.65
2023-04-11T13:43:49.919Z,29.67
2023-04-11T13:46:16.873Z,29.53
2023-04-11T13:48:43.629Z,29.67
2023-04-11T13:51:09.978Z,29.70
2023-04-11T13:53:36.295Z,29.80
2023-04-11T13:56:05.734Z,29.67
2023-04-11T13:58:32.185Z,29.70
2023-04-11T14:00:58.559Z,30.08
2023-04-11T14:03:25.033Z,29.99
2023-04-11T14:05:51.406Z,30.19
2023-04-11T14:08:17.721Z,29.86
2023-04-11T14:10:44.204Z,29.99
2023-04-11T14:13:11.589Z,30.04
2023-04-11T14:15:38.101Z,30.07
2023-04-11T14:18:04.463Z,30.14
2023-04-11T14:20:30.902Z,30.08
2023-04-11T14:22:57.280Z,30.07
2023-04-11T14:25:23.778Z,30.12
2023-04-11T14:27:50.676Z,30.04
2023-04-11T14:30:17.058Z,30.17
2023-04-11T14:32:43.395Z,29.94
2023-04-11T14:35:09.952Z,30.01
2023-04-11T14:37:36.708Z,29.99
2023-04-11T14:40:04.992Z,29.78
2023-04-11T14:42:31.659Z,29.70
2023-04-11T14:44:58.085Z,29.78
2023-04-11T14:47:24.417Z,29.77
2023-04-11T14:49:50.779Z,29.87
2023-04-11T14:52:17.198Z,29.91
2023-04-11T14:54:43.529Z,29.78
2023-04-11T14:57:10.286Z,29.86
2023-04-11T14:59:36.650Z,29.92
2023-04-11T15:02:03.229Z,29.80
2023-04-11T15:04:29.725Z,30.01
2023-04-11T15:06:56.542Z,29.82
2023-04-11T15:09:22.872Z,29.77
2023-04-11T15:11:49.229Z,29.87
2023-04-11T15:14:15.692Z,30.08
2023-04-11T15:16:42.067Z,30.02
2023-04-11T15:19:09.544Z,30.04
2023-04-11T15:21:35.929Z,29.92
2023-04-11T15:24:07.146Z,29.98
2023-04-11T15:26:33.715Z,30.17
2023-04-11T15:29:00.365Z,30.96
2023-04-11T15:31:26.945Z,30.41
2023-04-11T15:33:54.370Z,30.68
2023-04-11T15:36:22.332Z,30.79
2023-04-11T15:38:49.018Z,30.99
2023-04-11T15:41:15.385Z,30.87
2023-04-11T15:43:43.055Z,31.03
2023-04-11T15:46:10.262Z,30.95
2023-04-11T15:48:36.633Z,30.88
2023-04-11T15:51:10.018Z,30.64
2023-04-11T15:53:36.392Z,31.00
2023-04-11T15:56:06.510Z,30.82
2023-04-11T15:58:33.872Z,31.43
2023-04-11T16:01:01.641Z,31.09
2023-04-11T16:03:31.725Z,31.27
2023-04-11T16:05:58.532Z,31.49
2023-04-11T16:08:26.127Z,31.81
2023-04-11T16:10:52.450Z,31.57
2023-04-11T16:13:18.847Z,31.70
2023-04-11T16:15:45.341Z,31.89
2023-04-11T16:18:11.818Z,31.82
2023-04-11T16:20:39.054Z,31.87
2023-04-11T16:23:05.659Z,31.99
2023-04-11T16:25:32.074Z,32.00
2023-04-11T16:27:58.405Z,31.99
2023-04-11T16:30:26.248Z,32.23
2023-04-11T16:32:52.647Z,31.77
2023-04-11T16:35:19.089Z,32.12
2023-04-11T16:37:45.417Z,32.20
2023-04-11T16:40:12.196Z,32.31
2023-04-11T16:42:38.796Z,32.74
2023-04-11T16:45:05.377Z,32.77
2023-04-11T16:47:31.726Z,32.66
2023-04-11T16:49:58.072Z,33.19
2023-04-11T16:52:24.408Z,32.68
2023-04-11T16:54:50.987Z,32.68
2023-04-11T16:57:18.286Z,32.45
2023-04-11T16:59:44.612Z,32.71
2023-04-11T17:02:11.238Z,32.52
2023-04-11T17:04:38.543Z,32.48
2023-04-11T17:07:04.972Z,32.41
2023-04-11T17:09:31.520Z,32.44
2023-04-11T17:11:57.904Z,32.23
2023-04-11T17:14:24.580Z,32.35
2023-04-11T17:16:51.713Z,32.04
2023-04-11T17:19:18.081Z,31.87
2023-04-11T17:21:44.412Z,31.85
2023-04-11T17:24:10.757Z,31.74
2023-04-11T17:26:37.140Z,31.46
2023-04-11T17:29:03.567Z,31.36
2023-04-11T17:31:29.984Z,31.75
2023-04-11T17:33:56.569Z,31.59
2023-04-11T17:36:23.309Z,31.65
2023-04-11T17:38:51.372Z,31.57
2023-04-11T17:41:17.746Z,31.78
2023-04-11T17:43:44.065Z,31.77
2023-04-11T17:46:10.742Z,31.49
2023-04-11T17:48:37.133Z,31.49
2023-04-11T17:51:04.133Z,31.70
2023-04-11T17:53:30.853Z,31.37
2023-04-11T17:55:57.504Z,31.59
2023-04-11T17:58:23.868Z,31.28
2023-04-11T18:00:56.740Z,30.95
2023-04-11T18:03:25.141Z,31.12
2023-04-11T18:05:52.421Z,30.89
2023-04-11T18:08:18.764Z,30.79
2023-04-11T18:10:45.180Z,30.97
2023-04-11T18:13:11.526Z,30.88
2023-04-11T18:15:37.961Z,30.95
2023-04-11T18:18:07.963Z,30.95
2023-04-11T18:20:34.408Z,30.82
2023-04-11T18:23:01.645Z,30.96
2023-04-11T18:25:28.519Z,30.97
2023-04-11T18:27:54.959Z,30.95
2023-04-11T18:30:21.286Z,30.81
2023-04-11T18:32:50.298Z,30.98
2023-04-11T18:35:17.286Z,31.27
2023-04-11T18:37:43.980Z,31.09
2023-04-11T18:40:12.563Z,31.10
2023-04-11T18:42:39.421Z,31.08
2023-04-11T18:45:06.098Z,31.29
2023-04-11T18:47:32.528Z,31.00
2023-04-11T18:49:58.891Z,30.97
2023-04-11T18:52:27.028Z,30.91
2023-04-11T18:54:54.800Z,31.17
2023-04-11T18:57:21.143Z,31.05
2023-04-11T18:59:50.185Z,31.11
2023-04-11T19:02:17.377Z,30.70
2023-04-11T19:04:47.346Z,30.73
2023-04-11T19:07:16.895Z,30.52
2023-04-11T19:09:43.358Z,30.30
2023-04-11T19:12:09.805Z,30.47
2023-04-11T19:14:36.115Z,30.37
2023-04-11T19:17:02.806Z,30.29
2023-04-11T19:19:29.115Z,30.32
2023-04-11T19:21:55.907Z,30.46
2023-04-11T19:24:22.266Z,30.49
2023-04-11T19:26:48.595Z,30.47
2023-04-11T19:29:14.923Z,30.47
2023-04-11T19:31:41.440Z,30.22
2023-04-11T19:34:07.805Z,30.51
2023-04-11T19:36:34.376Z,30.32
2023-04-11T19:39:00.853Z,30.51
2023-04-11T19:41:27.211Z,30.62
2023-04-11T19:43:53.531Z,30.33
2023-04-11T19:46:20.011Z,30.54
2023-04-11T19:48:46.913Z,30.63
2023-04-11T19:51:13.879Z,30.82
2023-04-11T19:53:40.299Z,30.70
2023-04-11T19:56:07.493Z,30.70
2023-04-11T19:58:35.108Z,31.00
2023-04-11T20:01:01.878Z,30.71
2023-04-11T20:03:28.434Z,30.72
2023-04-11T20:05:54.924Z,31.13
2023-04-11T20:08:21.338Z,30.92
2023-04-11T20:10:47.717Z,30.94
2023-04-11T20:13:17.060Z,30.80
2023-04-11T20:15:43.370Z,31.02
2023-04-11T20:18:10.362Z,30.89
2023-04-11T20:20:38.364Z,30.63
2023-04-11T20:23:05.149Z,30.37
2023-04-11T20:25:31.797Z,30.63
2023-04-11T20:27:58.278Z,30.35
2023-04-11T20:30:24.731Z,30.56
2023-04-11T20:32:51.241Z,30.48
2023-04-11T20:35:19.211Z,30.52
2023-04-11T20:37:47.002Z,30.62
2023-04-11T20:40:14.262Z,30.55
2023-04-11T20:42:42.527Z,30.70
2023-04-11T20:45:10.293Z,30.58
2023-04-11T20:47:37.674Z,30.72
2023-04-11T20:50:07.315Z,30.51
2023-04-11T20:52:33.762Z,30.69
2023-04-11T20:55:00.177Z,30.47
2023-04-11T20:57:26.726Z,30.70
2023-04-11T20:59:54.457Z,30.91
2023-04-11T21:02:21.218Z,30.54
2023-04-11T21:04:51.408Z,30.83
2023-04-11T21:07:18.056Z,30.61
2023-04-11T21:09:44.991Z,30.78
2023-04-11T21:12:11.505Z,30.79
2023-04-11T21:14:37.815Z,30.80
2023-04-11T21:17:07.256Z,30.90
2023-04-11T21:19:36.628Z,30.59
2023-04-11T21:22:03.225Z,30.89
2023-04-11T21:24:32.834Z,30.85
2023-04-11T21:26:59.361Z,30.76
2023-04-11T21:29:25.672Z,30.72
2023-04-11T21:31:52.012Z,30.96
2023-04-11T21:34:18.377Z,31.00
2023-04-11T21:36:44.705Z,30.83
2023-04-11T21:39:11.043Z,31.00
2023-04-11T21:41:37.368Z,30.88
2023-04-11T21:44:03.685Z,31.12
2023-04-11T21:46:30.170Z,30.87
2023-04-11T21:48:56.509Z,31.04
2023-04-11T21:51:22.821Z,31.11
2023-04-11T21:53:49.161Z,31.04
2023-04-11T21:56:15.937Z,31.25
2023-04-11T21:58:42.261Z,30.96
2023-04-11T22:01:11.784Z,30.56
2023-04-11T22:03:42.174Z,30.33
2023-04-11T22:06:09.102Z,30.41
2023-04-11T22:08:39.049Z,30.06
2023-04-11T22:11:07.636Z,30.05
2023-04-11T22:13:35.120Z,29.87
2023-04-11T22:16:05.622Z,29.59
2023-04-11T22:18:33.514Z,29.67
2023-04-11T22:21:03.083Z,29.79
2023-04-11T22:23:29.610Z,29.55
2023-04-11T22:25:59.277Z,29.62
2023-04-11T22:28:26.204Z,29.71
2023-04-11T22:30:52.695Z,29.55
2023-04-11T22:33:19.057Z,29.62
2023-04-11T22:35:47.629Z,29.73
2023-04-11T22:38:15.806Z,29.86
2023-04-11T22:40:42.521Z,29.79
2023-04-11T22:43:09.851Z,29.83
2023-04-11T22:45:36.208Z,29.75
2023-04-11T22:48:04.166Z,29.77
2023-04-11T22:50:32.105Z,29.86
2023-04-11T22:53:01.954Z,30.01
2023-04-11T22:55:35.163Z,29.86
2023-04-11T22:58:01.866Z,29.89
2023-04-11T23:00:28.939Z,29.92
2023-04-11T23:02:55.453Z,30.00
2023-04-11T23:05:22.123Z,30.15
2023-04-11T23:07:48.447Z,30.34
2023-04-11T23:10:15.390Z,30.10
2023-04-11T23:12:41.884Z,30.32
2023-04-11T23:15:09.405Z,30.49
2023-04-11T23:17:37.678Z,30.37
2023-04-11T23:20:12.628Z,30.35
2023-04-11T23:22:41.117Z,30.27
2023-04-11T23:25:08.088Z,30.34
2023-04-11T23:27:34.423Z,30.53
2023-04-11T23:30:00.828Z,30.40
2023-04-11T23:32:27.238Z,30.48
2023-04-11T23:34:53.943Z,30.34
2023-04-11T23:37:20.255Z,30.40
2023-04-11T23:39:47.457Z,30.50
2023-04-11T23:42:13.776Z,30.84
2023-04-11T23:44:40.117Z,30.60
2023-04-11T23:47:07.093Z,30.80
2023-04-11T23:49:33.436Z,30.94
2023-04-11T23:51:59.759Z,31.34
2023-04-11T23:54:30.136Z,31.23
2023-04-11T23:56:59.591Z,31.46
2023-04-11T23:59:25.906Z,31.53
